sensor_id;sensor_type;location;lat;lon;timestamp;P1;durP1;ratioP1;P2;durP2;ratioP2
60492;SDS011;46341;51.290;-2.474;2023-02-28T00:00:03;7.57;;;2.88;;
60492;SDS011;46341;51.290;-2.474;2023-02-28T00:02:37;5.35;;;2.70;;
60492;SDS011;46341;51.290;-2.474;2023-02-28T00:05:03;9.20;;;3.67;;
60492;SDS011;46341;51.290;-2.474;2023-02-28T00:07:30;7.60;;;3.42;;
60492;SDS011;46341;51.290;-2.474;2023-02-28T00:09:57;7.83;;;3.30;;
60492;SDS011;46341;51.290;-2.474;2023-02-28T00:12:24;6.93;;;3.20;;
60492;SDS011;46341;51.290;-2.474;2023-02-28T00:14:50;6.05;;;3.08;;
60492;SDS011;46341;51.290;-2.474;2023-02-28T00:17:17;6.70;;;3.15;;
60492;SDS011;46341;51.290;-2.474;2023-02-28T00:19:47;7.35;;;3.05;;
60492;SDS011;46341;51.290;-2.474;2023-02-28T00:22:15;9.30;;;3.60;;
60492;SDS011;46341;51.290;-2.474;2023-02-28T00:24:41;6.27;;;3.43;;
60492;SDS011;46341;51.290;-2.474;2023-02-28T00:27:08;7.53;;;3.45;;
60492;SDS011;46341;51.290;-2.474;2023-02-28T00:29:34;8.05;;;3.70;;
60492;SDS011;46341;51.290;-2.474;2023-02-28T00:32:00;5.68;;;3.92;;
60492;SDS011;46341;51.290;-2.474;2023-02-28T00:34:27;7.60;;;4.00;;
60492;SDS011;46341;51.290;-2.474;2023-02-28T00:36:53;9.95;;;4.05;;
60492;SDS011;46341;51.290;-2.474;2023-02-28T00:39:20;7.05;;;3.70;;
60492;SDS011;46341;51.290;-2.474;2023-02-28T00:41:46;7.50;;;3.80;;
60492;SDS011;46341;51.290;-2.474;2023-02-28T00:44:12;7.43;;;3.95;;
60492;SDS011;46341;51.290;-2.474;2023-02-28T00:46:39;8.55;;;4.03;;
60492;SDS011;46341;51.290;-2.474;2023-02-28T00:49:05;8.88;;;4.10;;
60492;SDS011;46341;51.290;-2.474;2023-02-28T00:51:32;7.15;;;4.65;;
60492;SDS011;46341;51.290;-2.474;2023-02-28T00:53:58;8.02;;;4.32;;
60492;SDS011;46341;51.290;-2.474;2023-02-28T00:56:24;7.03;;;4.18;;
60492;SDS011;46341;51.290;-2.474;2023-02-28T00:58:50;29.08;;;17.92;;
60492;SDS011;46341;51.290;-2.474;2023-02-28T01:01:17;119.10;;;69.10;;
60492;SDS011;46341;51.290;-2.474;2023-02-28T01:03:43;97.30;;;58.53;;
60492;SDS011;46341;51.290;-2.474;2023-02-28T01:06:10;46.53;;;27.52;;
60492;SDS011;46341;51.290;-2.474;2023-02-28T01:08:36;86.97;;;52.90;;
60492;SDS011;46341;51.290;-2.474;2023-02-28T01:11:12;12.70;;;7.10;;
60492;SDS011;46341;51.290;-2.474;2023-02-28T01:13:39;13.82;;;6.68;;
60492;SDS011;46341;51.290;-2.474;2023-02-28T01:16:05;10.50;;;6.25;;
60492;SDS011;46341;51.290;-2.474;2023-02-28T01:18:32;10.68;;;5.80;;
60492;SDS011;46341;51.290;-2.474;2023-02-28T01:21:02;13.07;;;8.55;;
60492;SDS011;46341;51.290;-2.474;2023-02-28T01:23:29;60.92;;;39.25;;
60492;SDS011;46341;51.290;-2.474;2023-02-28T01:25:55;21.85;;;13.40;;
60492;SDS011;46341;51.290;-2.474;2023-02-28T01:28:21;12.02;;;6.70;;
60492;SDS011;46341;51.290;-2.474;2023-02-28T01:30:48;9.00;;;5.28;;
60492;SDS011;46341;51.290;-2.474;2023-02-28T01:33:15;10.50;;;5.00;;
60492;SDS011;46341;51.290;-2.474;2023-02-28T01:35:41;6.93;;;4.45;;
60492;SDS011;46341;51.290;-2.474;2023-02-28T01:38:08;9.70;;;4.75;;
60492;SDS011;46341;51.290;-2.474;2023-02-28T01:40:47;8.32;;;4.40;;
60492;SDS011;46341;51.290;-2.474;2023-02-28T01:43:19;6.53;;;4.32;;
60492;SDS011;46341;51.290;-2.474;2023-02-28T01:45:45;7.47;;;4.30;;
60492;SDS011;46341;51.290;-2.474;2023-02-28T01:48:12;11.70;;;5.97;;
60492;SDS011;46341;51.290;-2.474;2023-02-28T01:50:39;11.13;;;7.38;;
60492;SDS011;46341;51.290;-2.474;2023-02-28T01:53:08;14.73;;;9.13;;
60492;SDS011;46341;51.290;-2.474;2023-02-28T01:55:36;29.83;;;19.17;;
60492;SDS011;46341;51.290;-2.474;2023-02-28T01:58:04;19.13;;;10.65;;
60492;SDS011;46341;51.290;-2.474;2023-02-28T02:00:32;40.92;;;24.35;;
60492;SDS011;46341;51.290;-2.474;2023-02-28T02:02:59;11.57;;;8.68;;
60492;SDS011;46341;51.290;-2.474;2023-02-28T02:05:28;9.30;;;6.00;;
60492;SDS011;46341;51.290;-2.474;2023-02-28T02:07:58;11.77;;;6.25;;
60492;SDS011;46341;51.290;-2.474;2023-02-28T02:10:39;19.50;;;12.15;;
60492;SDS011;46341;51.290;-2.474;2023-02-28T02:16:06;8.23;;;4.95;;
60492;SDS011;46341;51.290;-2.474;2023-02-28T02:18:46;10.70;;;6.40;;
60492;SDS011;46341;51.290;-2.474;2023-02-28T02:24:11;20.58;;;12.00;;
60492;SDS011;46341;51.290;-2.474;2023-02-28T02:45:01;11.82;;;5.50;;
60492;SDS011;46341;51.290;-2.474;2023-02-28T02:47:29;17.88;;;8.20;;
60492;SDS011;46341;51.290;-2.474;2023-02-28T02:49:58;17.52;;;8.80;;
60492;SDS011;46341;51.290;-2.474;2023-02-28T02:52:29;23.00;;;12.40;;
60492;SDS011;46341;51.290;-2.474;2023-02-28T02:54:57;17.02;;;9.20;;
60492;SDS011;46341;51.290;-2.474;2023-02-28T02:57:27;20.00;;;9.65;;
60492;SDS011;46341;51.290;-2.474;2023-02-28T02:59:53;14.02;;;8.43;;
60492;SDS011;46341;51.290;-2.474;2023-02-28T03:02:21;33.13;;;18.00;;
60492;SDS011;46341;51.290;-2.474;2023-02-28T03:04:56;86.55;;;41.83;;
60492;SDS011;46341;51.290;-2.474;2023-02-28T03:07:26;46.50;;;22.85;;
60492;SDS011;46341;51.290;-2.474;2023-02-28T03:09:54;35.63;;;17.13;;
60492;SDS011;46341;51.290;-2.474;2023-02-28T03:12:21;22.88;;;11.18;;
60492;SDS011;46341;51.290;-2.474;2023-02-28T03:27:35;116.10;;;58.10;;
60492;SDS011;46341;51.290;-2.474;2023-02-28T03:32:50;72.25;;;36.65;;
60492;SDS011;46341;51.290;-2.474;2023-02-28T03:35:20;25.63;;;13.43;;
60492;SDS011;46341;51.290;-2.474;2023-02-28T03:38:00;150.60;;;82.20;;
60492;SDS011;46341;51.290;-2.474;2023-02-28T03:40:30;113.63;;;57.22;;
60492;SDS011;46341;51.290;-2.474;2023-02-28T03:43:02;16.35;;;9.68;;
60492;SDS011;46341;51.290;-2.474;2023-02-28T03:45:30;13.25;;;6.90;;
60492;SDS011;46341;51.290;-2.474;2023-02-28T03:48:00;15.93;;;8.60;;
60492;SDS011;46341;51.290;-2.474;2023-02-28T03:50:41;49.58;;;24.92;;
60492;SDS011;46341;51.290;-2.474;2023-02-28T03:53:12;12.57;;;7.38;;
60492;SDS011;46341;51.290;-2.474;2023-02-28T03:55:54;19.38;;;11.43;;
60492;SDS011;46341;51.290;-2.474;2023-02-28T03:58:37;14.15;;;7.00;;
60492;SDS011;46341;51.290;-2.474;2023-02-28T04:01:08;9.93;;;4.70;;
60492;SDS011;46341;51.290;-2.474;2023-02-28T04:03:36;5.82;;;3.90;;
60492;SDS011;46341;51.290;-2.474;2023-02-28T04:06:04;8.55;;;4.78;;
60492;SDS011;46341;51.290;-2.474;2023-02-28T04:08:31;17.13;;;9.07;;
60492;SDS011;46341;51.290;-2.474;2023-02-28T04:11:00;44.13;;;20.83;;
60492;SDS011;46341;51.290;-2.474;2023-02-28T04:13:27;14.82;;;7.00;;
60492;SDS011;46341;51.290;-2.474;2023-02-28T04:15:54;7.47;;;4.55;;
60492;SDS011;46341;51.290;-2.474;2023-02-28T04:18:20;9.10;;;4.38;;
60492;SDS011;46341;51.290;-2.474;2023-02-28T04:20:47;9.00;;;4.68;;
60492;SDS011;46341;51.290;-2.474;2023-02-28T04:23:13;25.42;;;12.25;;
60492;SDS011;46341;51.290;-2.474;2023-02-28T04:25:39;41.72;;;16.58;;
60492;SDS011;46341;51.290;-2.474;2023-02-28T04:28:06;18.30;;;8.30;;
60492;SDS011;46341;51.290;-2.474;2023-02-28T04:30:33;7.45;;;4.40;;
60492;SDS011;46341;51.290;-2.474;2023-02-28T04:32:59;6.03;;;4.00;;
60492;SDS011;46341;51.290;-2.474;2023-02-28T04:35:26;12.48;;;6.82;;
60492;SDS011;46341;51.290;-2.474;2023-02-28T04:37:52;13.77;;;7.15;;
60492;SDS011;46341;51.290;-2.474;2023-02-28T04:40:18;10.25;;;4.03;;
60492;SDS011;46341;51.290;-2.474;2023-02-28T04:42:45;7.28;;;3.60;;
60492;SDS011;46341;51.290;-2.474;2023-02-28T04:45:11;6.60;;;3.20;;
60492;SDS011;46341;51.290;-2.474;2023-02-28T04:47:37;7.13;;;3.92;;
60492;SDS011;46341;51.290;-2.474;2023-02-28T04:50:04;5.63;;;3.30;;
60492;SDS011;46341;51.290;-2.474;2023-02-28T04:52:30;7.60;;;3.40;;
60492;SDS011;46341;51.290;-2.474;2023-02-28T04:54:57;11.77;;;3.28;;
60492;SDS011;46341;51.290;-2.474;2023-02-28T04:57:23;5.15;;;3.13;;
60492;SDS011;46341;51.290;-2.474;2023-02-28T04:59:49;7.35;;;3.38;;
60492;SDS011;46341;51.290;-2.474;2023-02-28T05:02:16;6.10;;;3.55;;
60492;SDS011;46341;51.290;-2.474;2023-02-28T05:04:42;6.15;;;3.42;;
60492;SDS011;46341;51.290;-2.474;2023-02-28T05:07:09;34.95;;;20.05;;
60492;SDS011;46341;51.290;-2.474;2023-02-28T05:09:36;52.45;;;26.70;;
60492;SDS011;46341;51.290;-2.474;2023-02-28T05:12:02;62.83;;;32.53;;
60492;SDS011;46341;51.290;-2.474;2023-02-28T05:14:29;47.95;;;25.83;;
60492;SDS011;46341;51.290;-2.474;2023-02-28T05:16:55;27.98;;;14.55;;
60492;SDS011;46341;51.290;-2.474;2023-02-28T05:19:22;30.20;;;17.00;;
60492;SDS011;46341;51.290;-2.474;2023-02-28T05:21:52;106.93;;;57.92;;
60492;SDS011;46341;51.290;-2.474;2023-02-28T05:24:19;201.35;;;100.38;;
60492;SDS011;46341;51.290;-2.474;2023-02-28T05:26:52;482.05;;;308.67;;
60492;SDS011;46341;51.290;-2.474;2023-02-28T05:29:19;352.67;;;208.30;;
60492;SDS011;46341;51.290;-2.474;2023-02-28T05:31:46;98.65;;;59.03;;
60492;SDS011;46341;51.290;-2.474;2023-02-28T05:34:12;49.85;;;29.05;;
60492;SDS011;46341;51.290;-2.474;2023-02-28T05:36:41;70.47;;;42.20;;
60492;SDS011;46341;51.290;-2.474;2023-02-28T05:39:08;114.80;;;74.32;;
60492;SDS011;46341;51.290;-2.474;2023-02-28T05:41:39;70.68;;;40.60;;
60492;SDS011;46341;51.290;-2.474;2023-02-28T05:44:06;14.02;;;6.05;;
60492;SDS011;46341;51.290;-2.474;2023-02-28T05:46:32;6.25;;;3.53;;
60492;SDS011;46341;51.290;-2.474;2023-02-28T05:48:58;6.13;;;3.22;;
60492;SDS011;46341;51.290;-2.474;2023-02-28T05:51:26;4.85;;;2.90;;
60492;SDS011;46341;51.290;-2.474;2023-02-28T05:53:53;5.60;;;2.80;;
60492;SDS011;46341;51.290;-2.474;2023-02-28T05:56:19;12.38;;;5.88;;
60492;SDS011;46341;51.290;-2.474;2023-02-28T05:58:46;58.28;;;31.33;;
60492;SDS011;46341;51.290;-2.474;2023-02-28T06:03:58;16.25;;;8.38;;
60492;SDS011;46341;51.290;-2.474;2023-02-28T06:06:24;10.18;;;5.30;;
60492;SDS011;46341;51.290;-2.474;2023-02-28T06:08:51;10.13;;;4.32;;
60492;SDS011;46341;51.290;-2.474;2023-02-28T06:11:17;39.72;;;20.95;;
60492;SDS011;46341;51.290;-2.474;2023-02-28T06:13:46;64.65;;;34.33;;
60492;SDS011;46341;51.290;-2.474;2023-02-28T06:16:12;12.18;;;7.78;;
60492;SDS011;46341;51.290;-2.474;2023-02-28T06:18:38;14.30;;;8.05;;
60492;SDS011;46341;51.290;-2.474;2023-02-28T06:21:05;18.92;;;10.00;;
60492;SDS011;46341;51.290;-2.474;2023-02-28T06:23:31;29.23;;;15.48;;
60492;SDS011;46341;51.290;-2.474;2023-02-28T06:25:58;239.07;;;127.93;;
60492;SDS011;46341;51.290;-2.474;2023-02-28T06:28:25;99.07;;;56.70;;
60492;SDS011;46341;51.290;-2.474;2023-02-28T06:30:51;120.23;;;77.93;;
60492;SDS011;46341;51.290;-2.474;2023-02-28T06:33:18;117.47;;;65.95;;
60492;SDS011;46341;51.290;-2.474;2023-02-28T06:35:46;57.17;;;31.67;;
60492;SDS011;46341;51.290;-2.474;2023-02-28T06:38:12;159.63;;;99.25;;
60492;SDS011;46341;51.290;-2.474;2023-02-28T06:40:39;109.22;;;69.25;;
60492;SDS011;46341;51.290;-2.474;2023-02-28T06:43:05;106.13;;;66.05;;
60492;SDS011;46341;51.290;-2.474;2023-02-28T06:45:31;102.72;;;55.67;;
60492;SDS011;46341;51.290;-2.474;2023-02-28T06:47:58;40.83;;;20.02;;
60492;SDS011;46341;51.290;-2.474;2023-02-28T06:50:26;186.73;;;95.20;;
60492;SDS011;46341;51.290;-2.474;2023-02-28T06:52:54;16.90;;;9.50;;
60492;SDS011;46341;51.290;-2.474;2023-02-28T06:55:21;10.38;;;5.30;;
60492;SDS011;46341;51.290;-2.474;2023-02-28T06:57:48;13.98;;;7.18;;
60492;SDS011;46341;51.290;-2.474;2023-02-28T07:00:16;11.60;;;6.32;;
60492;SDS011;46341;51.290;-2.474;2023-02-28T07:02:43;39.88;;;21.42;;
60492;SDS011;46341;51.290;-2.474;2023-02-28T07:05:09;39.38;;;19.08;;
60492;SDS011;46341;51.290;-2.474;2023-02-28T07:07:35;162.40;;;90.75;;
60492;SDS011;46341;51.290;-2.474;2023-02-28T07:10:04;58.90;;;33.20;;
60492;SDS011;46341;51.290;-2.474;2023-02-28T07:12:31;21.75;;;11.85;;
60492;SDS011;46341;51.290;-2.474;2023-02-28T07:14:57;70.57;;;22.88;;
60492;SDS011;46341;51.290;-2.474;2023-02-28T07:17:23;47.92;;;17.92;;
60492;SDS011;46341;51.290;-2.474;2023-02-28T07:19:50;48.58;;;22.25;;
60492;SDS011;46341;51.290;-2.474;2023-02-28T07:22:16;34.25;;;17.75;;
60492;SDS011;46341;51.290;-2.474;2023-02-28T07:24:42;32.30;;;19.55;;
60492;SDS011;46341;51.290;-2.474;2023-02-28T07:27:09;68.43;;;37.28;;
60492;SDS011;46341;51.290;-2.474;2023-02-28T07:29:36;43.47;;;24.67;;
60492;SDS011;46341;51.290;-2.474;2023-02-28T07:32:03;15.88;;;8.70;;
60492;SDS011;46341;51.290;-2.474;2023-02-28T07:34:29;21.83;;;14.05;;
60492;SDS011;46341;51.290;-2.474;2023-02-28T07:36:56;61.28;;;33.28;;
60492;SDS011;46341;51.290;-2.474;2023-02-28T07:39:22;82.13;;;49.17;;
60492;SDS011;46341;51.290;-2.474;2023-02-28T07:41:49;65.45;;;36.58;;
60492;SDS011;46341;51.290;-2.474;2023-02-28T07:44:15;72.20;;;39.65;;
60492;SDS011;46341;51.290;-2.474;2023-02-28T07:46:41;21.60;;;14.77;;
60492;SDS011;46341;51.290;-2.474;2023-02-28T07:49:08;31.60;;;19.92;;
60492;SDS011;46341;51.290;-2.474;2023-02-28T07:51:34;57.40;;;37.13;;
60492;SDS011;46341;51.290;-2.474;2023-02-28T07:54:01;23.98;;;15.48;;
60492;SDS011;46341;51.290;-2.474;2023-02-28T07:56:27;19.45;;;13.25;;
60492;SDS011;46341;51.290;-2.474;2023-02-28T07:58:54;44.20;;;27.38;;
60492;SDS011;46341;51.290;-2.474;2023-02-28T08:01:21;63.72;;;40.88;;
60492;SDS011;46341;51.290;-2.474;2023-02-28T08:03:47;82.45;;;46.15;;
60492;SDS011;46341;51.290;-2.474;2023-02-28T08:06:18;116.93;;;65.38;;
60492;SDS011;46341;51.290;-2.474;2023-02-28T08:08:45;45.17;;;26.52;;
60492;SDS011;46341;51.290;-2.474;2023-02-28T08:11:11;13.55;;;10.68;;
60492;SDS011;46341;51.290;-2.474;2023-02-28T08:13:38;13.85;;;10.00;;
60492;SDS011;46341;51.290;-2.474;2023-02-28T08:16:04;34.97;;;22.70;;
60492;SDS011;46341;51.290;-2.474;2023-02-28T08:18:32;37.85;;;22.35;;
60492;SDS011;46341;51.290;-2.474;2023-02-28T08:20:58;97.80;;;55.88;;
60492;SDS011;46341;51.290;-2.474;2023-02-28T08:23:25;94.55;;;56.40;;
60492;SDS011;46341;51.290;-2.474;2023-02-28T08:25:55;82.38;;;45.20;;
60492;SDS011;46341;51.290;-2.474;2023-02-28T08:28:22;67.40;;;42.83;;
60492;SDS011;46341;51.290;-2.474;2023-02-28T08:30:52;66.40;;;43.40;;
60492;SDS011;46341;51.290;-2.474;2023-02-28T08:33:18;15.68;;;12.23;;
60492;SDS011;46341;51.290;-2.474;2023-02-28T08:35:44;19.83;;;14.25;;
60492;SDS011;46341;51.290;-2.474;2023-02-28T08:38:11;39.47;;;25.10;;
60492;SDS011;46341;51.290;-2.474;2023-02-28T08:40:37;69.82;;;45.75;;
60492;SDS011;46341;51.290;-2.474;2023-02-28T08:43:04;65.80;;;43.65;;
60492;SDS011;46341;51.290;-2.474;2023-02-28T08:45:30;39.72;;;26.52;;
60492;SDS011;46341;51.290;-2.474;2023-02-28T08:47:56;26.88;;;19.50;;
60492;SDS011;46341;51.290;-2.474;2023-02-28T08:50:23;18.83;;;14.15;;
60492;SDS011;46341;51.290;-2.474;2023-02-28T08:52:49;18.73;;;14.38;;
60492;SDS011;46341;51.290;-2.474;2023-02-28T08:55:15;19.15;;;13.88;;
60492;SDS011;46341;51.290;-2.474;2023-02-28T08:57:42;17.25;;;12.32;;
60492;SDS011;46341;51.290;-2.474;2023-02-28T09:00:09;18.35;;;13.15;;
60492;SDS011;46341;51.290;-2.474;2023-02-28T09:02:36;14.60;;;11.73;;
60492;SDS011;46341;51.290;-2.474;2023-02-28T09:05:03;13.88;;;11.25;;
60492;SDS011;46341;51.290;-2.474;2023-02-28T09:07:29;14.48;;;12.02;;
60492;SDS011;46341;51.290;-2.474;2023-02-28T09:09:56;13.30;;;11.50;;
60492;SDS011;46341;51.290;-2.474;2023-02-28T09:12:24;10.82;;;9.75;;
60492;SDS011;46341;51.290;-2.474;2023-02-28T09:14:51;11.60;;;10.40;;
60492;SDS011;46341;51.290;-2.474;2023-02-28T09:17:18;11.52;;;10.30;;
60492;SDS011;46341;51.290;-2.474;2023-02-28T09:19:47;10.20;;;9.10;;
60492;SDS011;46341;51.290;-2.474;2023-02-28T09:22:13;10.73;;;9.43;;
60492;SDS011;46341;51.290;-2.474;2023-02-28T09:24:39;10.23;;;8.93;;
60492;SDS011;46341;51.290;-2.474;2023-02-28T09:27:11;10.75;;;8.85;;
60492;SDS011;46341;51.290;-2.474;2023-02-28T09:29:37;9.05;;;8.00;;
60492;SDS011;46341;51.290;-2.474;2023-02-28T09:32:03;8.80;;;7.55;;
60492;SDS011;46341;51.290;-2.474;2023-02-28T09:36:58;9.38;;;8.48;;
60492;SDS011;46341;51.290;-2.474;2023-02-28T09:39:24;8.20;;;7.40;;
60492;SDS011;46341;51.290;-2.474;2023-02-28T09:41:53;7.80;;;7.10;;
60492;SDS011;46341;51.290;-2.474;2023-02-28T09:47:33;8.43;;;7.60;;
60492;SDS011;46341;51.290;-2.474;2023-02-28T09:49:51;8.02;;;7.32;;
60492;SDS011;46341;51.290;-2.474;2023-02-28T09:52:19;8.45;;;7.68;;
60492;SDS011;46341;51.290;-2.474;2023-02-28T09:54:46;8.40;;;7.60;;
60492;SDS011;46341;51.290;-2.474;2023-02-28T09:57:15;8.82;;;8.00;;
60492;SDS011;46341;51.290;-2.474;2023-02-28T10:02:31;10.20;;;9.20;;
60492;SDS011;46341;51.290;-2.474;2023-02-28T10:05:00;10.52;;;9.52;;
60492;SDS011;46341;51.290;-2.474;2023-02-28T10:12:45;10.98;;;9.93;;
60492;SDS011;46341;51.290;-2.474;2023-02-28T10:15:16;11.77;;;10.50;;
60492;SDS011;46341;51.290;-2.474;2023-02-28T10:17:44;12.90;;;11.57;;
60492;SDS011;46341;51.290;-2.474;2023-02-28T10:20:26;12.48;;;11.23;;
60492;SDS011;46341;51.290;-2.474;2023-02-28T10:23:04;11.27;;;10.18;;
60492;SDS011;46341;51.290;-2.474;2023-02-28T10:25:34;10.82;;;9.73;;
60492;SDS011;46341;51.290;-2.474;2023-02-28T10:28:07;8.93;;;8.07;;
60492;SDS011;46341;51.290;-2.474;2023-02-28T10:30:36;9.05;;;7.97;;
60492;SDS011;46341;51.290;-2.474;2023-02-28T10:33:05;7.85;;;6.93;;
60492;SDS011;46341;51.290;-2.474;2023-02-28T10:35:31;7.00;;;6.22;;
60492;SDS011;46341;51.290;-2.474;2023-02-28T10:38:00;7.35;;;6.65;;
60492;SDS011;46341;51.290;-2.474;2023-02-28T10:40:31;7.03;;;6.40;;
60492;SDS011;46341;51.290;-2.474;2023-02-28T10:45:25;6.70;;;6.10;;
60492;SDS011;46341;51.290;-2.474;2023-02-28T10:50:44;6.93;;;6.32;;
60492;SDS011;46341;51.290;-2.474;2023-02-28T10:53:14;6.50;;;5.53;;
60492;SDS011;46341;51.290;-2.474;2023-02-28T10:55:42;6.57;;;5.97;;
60492;SDS011;46341;51.290;-2.474;2023-02-28T10:58:28;6.43;;;5.82;;
60492;SDS011;46341;51.290;-2.474;2023-02-28T11:00:54;6.75;;;6.05;;
60492;SDS011;46341;51.290;-2.474;2023-02-28T11:03:31;7.22;;;6.53;;
60492;SDS011;46341;51.290;-2.474;2023-02-28T11:06:03;6.28;;;5.78;;
60492;SDS011;46341;51.290;-2.474;2023-02-28T11:08:29;6.68;;;5.95;;
60492;SDS011;46341;51.290;-2.474;2023-02-28T11:10:57;6.53;;;5.93;;
60492;SDS011;46341;51.290;-2.474;2023-02-28T11:13:26;6.22;;;5.63;;
60492;SDS011;46341;51.290;-2.474;2023-02-28T11:15:54;5.95;;;5.45;;
60492;SDS011;46341;51.290;-2.474;2023-02-28T11:20:51;5.50;;;4.93;;
60492;SDS011;46341;51.290;-2.474;2023-02-28T11:23:18;4.95;;;4.45;;
60492;SDS011;46341;51.290;-2.474;2023-02-28T11:25:47;5.45;;;4.95;;
60492;SDS011;46341;51.290;-2.474;2023-02-28T11:36:08;7.75;;;5.80;;
60492;SDS011;46341;51.290;-2.474;2023-02-28T11:38:35;6.72;;;5.97;;
60492;SDS011;46341;51.290;-2.474;2023-02-28T11:43:41;7.85;;;6.07;;
60492;SDS011;46341;51.290;-2.474;2023-02-28T11:46:24;6.63;;;6.03;;
60492;SDS011;46341;51.290;-2.474;2023-02-28T11:49:06;7.03;;;6.32;;
60492;SDS011;46341;51.290;-2.474;2023-02-28T11:51:50;7.65;;;6.85;;
60492;SDS011;46341;51.290;-2.474;2023-02-28T11:57:09;9.57;;;6.95;;
60492;SDS011;46341;51.290;-2.474;2023-02-28T12:02:23;7.60;;;6.65;;
60492;SDS011;46341;51.290;-2.474;2023-02-28T12:07:19;7.50;;;6.72;;
60492;SDS011;46341;51.290;-2.474;2023-02-28T12:10:04;8.93;;;8.13;;
60492;SDS011;46341;51.290;-2.474;2023-02-28T12:20:22;9.93;;;8.38;;
60492;SDS011;46341;51.290;-2.474;2023-02-28T12:27:54;10.85;;;8.55;;
60492;SDS011;46341;51.290;-2.474;2023-02-28T12:30:22;11.70;;;9.38;;
60492;SDS011;46341;51.290;-2.474;2023-02-28T12:32:54;10.93;;;9.77;;
60492;SDS011;46341;51.290;-2.474;2023-02-28T12:35:24;10.13;;;8.23;;
60492;SDS011;46341;51.290;-2.474;2023-02-28T12:38:01;10.02;;;8.25;;
60492;SDS011;46341;51.290;-2.474;2023-02-28T12:40:41;10.60;;;8.00;;
60492;SDS011;46341;51.290;-2.474;2023-02-28T12:43:09;10.60;;;8.35;;
60492;SDS011;46341;51.290;-2.474;2023-02-28T12:48:04;7.88;;;7.07;;
60492;SDS011;46341;51.290;-2.474;2023-02-28T12:50:32;11.95;;;9.05;;
60492;SDS011;46341;51.290;-2.474;2023-02-28T12:53:00;10.40;;;8.48;;
60492;SDS011;46341;51.290;-2.474;2023-02-28T13:00:30;9.02;;;8.13;;
60492;SDS011;46341;51.290;-2.474;2023-02-28T13:05:49;8.60;;;6.65;;
60492;SDS011;46341;51.290;-2.474;2023-02-28T13:10:57;7.72;;;5.82;;
60492;SDS011;46341;51.290;-2.474;2023-02-28T13:13:25;6.95;;;5.97;;
60492;SDS011;46341;51.290;-2.474;2023-02-28T13:18:49;7.35;;;5.45;;
60492;SDS011;46341;51.290;-2.474;2023-02-28T13:21:23;8.55;;;6.05;;
60492;SDS011;46341;51.290;-2.474;2023-02-28T13:34:33;6.20;;;5.60;;
60492;SDS011;46341;51.290;-2.474;2023-02-28T13:42:46;6.00;;;5.25;;
60492;SDS011;46341;51.290;-2.474;2023-02-28T13:47:43;5.30;;;4.80;;
60492;SDS011;46341;51.290;-2.474;2023-02-28T13:50:15;5.00;;;4.57;;
60492;SDS011;46341;51.290;-2.474;2023-02-28T13:55:33;5.18;;;4.68;;
60492;SDS011;46341;51.290;-2.474;2023-02-28T14:11:31;5.20;;;4.70;;
60492;SDS011;46341;51.290;-2.474;2023-02-28T14:13:58;4.28;;;3.97;;
60492;SDS011;46341;51.290;-2.474;2023-02-28T14:16:35;4.45;;;4.05;;
60492;SDS011;46341;51.290;-2.474;2023-02-28T14:19:12;4.13;;;3.80;;
60492;SDS011;46341;51.290;-2.474;2023-02-28T14:21:43;4.47;;;3.80;;
60492;SDS011;46341;51.290;-2.474;2023-02-28T14:37:33;5.40;;;4.90;;
60492;SDS011;46341;51.290;-2.474;2023-02-28T14:40:02;5.15;;;4.65;;
60492;SDS011;46341;51.290;-2.474;2023-02-28T14:42:37;5.70;;;5.30;;
60492;SDS011;46341;51.290;-2.474;2023-02-28T14:45:20;5.30;;;4.80;;
60492;SDS011;46341;51.290;-2.474;2023-02-28T14:47:47;4.55;;;4.15;;
60492;SDS011;46341;51.290;-2.474;2023-02-28T14:50:23;6.18;;;5.72;;
60492;SDS011;46341;51.290;-2.474;2023-02-28T14:55:17;10.00;;;9.02;;
60492;SDS011;46341;51.290;-2.474;2023-02-28T14:57:57;5.88;;;5.35;;
60492;SDS011;46341;51.290;-2.474;2023-02-28T15:00:28;4.72;;;4.32;;
60492;SDS011;46341;51.290;-2.474;2023-02-28T15:02:55;10.63;;;7.53;;
60492;SDS011;46341;51.290;-2.474;2023-02-28T15:05:29;5.47;;;4.97;;
60492;SDS011;46341;51.290;-2.474;2023-02-28T15:10:28;11.85;;;6.75;;
60492;SDS011;46341;51.290;-2.474;2023-02-28T15:12:55;4.25;;;3.67;;
60492;SDS011;46341;51.290;-2.474;2023-02-28T15:15:24;8.57;;;5.50;;
60492;SDS011;46341;51.290;-2.474;2023-02-28T15:18:05;4.75;;;3.42;;
60492;SDS011;46341;51.290;-2.474;2023-02-28T15:20:33;4.50;;;3.20;;
60492;SDS011;46341;51.290;-2.474;2023-02-28T15:23:01;7.57;;;4.78;;
60492;SDS011;46341;51.290;-2.474;2023-02-28T15:25:28;10.35;;;6.43;;
60492;SDS011;46341;51.290;-2.474;2023-02-28T15:27:54;6.70;;;4.27;;
60492;SDS011;46341;51.290;-2.474;2023-02-28T15:30:26;11.30;;;5.70;;
60492;SDS011;46341;51.290;-2.474;2023-02-28T15:35:39;4.97;;;3.50;;
60492;SDS011;46341;51.290;-2.474;2023-02-28T15:40:51;6.40;;;3.42;;
60492;SDS011;46341;51.290;-2.474;2023-02-28T15:43:26;8.50;;;3.85;;
60492;SDS011;46341;51.290;-2.474;2023-02-28T15:48:30;2.80;;;2.60;;
60492;SDS011;46341;51.290;-2.474;2023-02-28T15:53:26;12.90;;;5.68;;
60492;SDS011;46341;51.290;-2.474;2023-02-28T15:55:55;4.10;;;3.70;;
60492;SDS011;46341;51.290;-2.474;2023-02-28T15:58:23;9.02;;;6.28;;
60492;SDS011;46341;51.290;-2.474;2023-02-28T16:03:39;5.22;;;3.88;;
60492;SDS011;46341;51.290;-2.474;2023-02-28T16:08:42;8.40;;;4.40;;
60492;SDS011;46341;51.290;-2.474;2023-02-28T16:11:09;4.30;;;3.90;;
60492;SDS011;46341;51.290;-2.474;2023-02-28T16:13:36;4.55;;;4.15;;
60492;SDS011;46341;51.290;-2.474;2023-02-28T16:16:03;22.27;;;20.07;;
60492;SDS011;46341;51.290;-2.474;2023-02-28T16:18:29;77.25;;;57.55;;
60492;SDS011;46341;51.290;-2.474;2023-02-28T16:20:56;114.25;;;75.82;;
60492;SDS011;46341;51.290;-2.474;2023-02-28T16:23:22;114.60;;;74.15;;
60492;SDS011;46341;51.290;-2.474;2023-02-28T16:25:48;97.78;;;62.38;;
60492;SDS011;46341;51.290;-2.474;2023-02-28T16:28:17;12.32;;;11.00;;
60492;SDS011;46341;51.290;-2.474;2023-02-28T16:30:44;8.55;;;6.15;;
60492;SDS011;46341;51.290;-2.474;2023-02-28T16:33:11;5.82;;;5.20;;
60492;SDS011;46341;51.290;-2.474;2023-02-28T16:35:37;9.25;;;5.20;;
60492;SDS011;46341;51.290;-2.474;2023-02-28T16:38:04;6.03;;;4.30;;
60492;SDS011;46341;51.290;-2.474;2023-02-28T16:40:33;9.03;;;5.47;;
60492;SDS011;46341;51.290;-2.474;2023-02-28T16:42:59;7.55;;;5.38;;
60492;SDS011;46341;51.290;-2.474;2023-02-28T16:45:27;9.25;;;5.47;;
60492;SDS011;46341;51.290;-2.474;2023-02-28T16:47:54;5.65;;;5.07;;
60492;SDS011;46341;51.290;-2.474;2023-02-28T16:50:25;5.27;;;4.77;;
60492;SDS011;46341;51.290;-2.474;2023-02-28T16:52:52;6.75;;;5.30;;
60492;SDS011;46341;51.290;-2.474;2023-02-28T16:57:56;10.52;;;9.55;;
60492;SDS011;46341;51.290;-2.474;2023-02-28T17:00:23;9.70;;;8.73;;
60492;SDS011;46341;51.290;-2.474;2023-02-28T17:02:50;5.45;;;4.88;;
60492;SDS011;46341;51.290;-2.474;2023-02-28T17:05:17;9.43;;;5.30;;
60492;SDS011;46341;51.290;-2.474;2023-02-28T17:07:44;5.53;;;4.65;;
60492;SDS011;46341;51.290;-2.474;2023-02-28T17:10:18;4.60;;;4.20;;
60492;SDS011;46341;51.290;-2.474;2023-02-28T17:12:45;5.80;;;4.63;;
60492;SDS011;46341;51.290;-2.474;2023-02-28T17:15:12;5.35;;;4.22;;
60492;SDS011;46341;51.290;-2.474;2023-02-28T17:17:39;5.15;;;4.30;;
60492;SDS011;46341;51.290;-2.474;2023-02-28T17:20:05;5.55;;;4.65;;
60492;SDS011;46341;51.290;-2.474;2023-02-28T17:22:32;5.18;;;4.68;;
60492;SDS011;46341;51.290;-2.474;2023-02-28T17:24:58;10.15;;;9.25;;
60492;SDS011;46341;51.290;-2.474;2023-02-28T17:27:25;5.85;;;4.85;;
60492;SDS011;46341;51.290;-2.474;2023-02-28T17:29:51;7.10;;;4.72;;